sensor_id;sensor_type;location;lat;lon;timestamp;P1;durP1;ratioP1;P2;durP2;ratioP2
16705;SDS011;8469;60.136;15.180;2022-09-27T00:00:14;1.95;;;1.50;;
16705;SDS011;8469;60.136;15.180;2022-09-27T00:02:41;1.70;;;1.60;;
16705;SDS011;8469;60.136;15.180;2022-09-27T00:05:09;1.90;;;1.45;;
16705;SDS011;8469;60.136;15.180;2022-09-27T00:07:36;3.60;;;1.60;;
16705;SDS011;8469;60.136;15.180;2022-09-27T00:10:04;2.22;;;1.40;;
16705;SDS011;8469;60.136;15.180;2022-09-27T00:12:31;4.10;;;1.60;;
16705;SDS011;8469;60.136;15.180;2022-09-27T00:14:58;1.75;;;1.50;;
16705;SDS011;8469;60.136;15.180;2022-09-27T00:17:27;2.30;;;1.40;;
16705;SDS011;8469;60.136;15.180;2022-09-27T00:19:57;1.62;;;1.50;;
16705;SDS011;8469;60.136;15.180;2022-09-27T00:22:24;3.80;;;1.90;;
16705;SDS011;8469;60.136;15.180;2022-09-27T00:24:51;2.60;;;1.30;;
16705;SDS011;8469;60.136;15.180;2022-09-27T00:27:19;6.97;;;1.52;;
16705;SDS011;8469;60.136;15.180;2022-09-27T00:29:46;2.77;;;1.52;;
16705;SDS011;8469;60.136;15.180;2022-09-27T00:32:14;5.78;;;1.40;;
16705;SDS011;8469;60.136;15.180;2022-09-27T00:34:43;1.60;;;1.50;;
16705;SDS011;8469;60.136;15.180;2022-09-27T00:37:10;2.47;;;1.60;;
16705;SDS011;8469;60.136;15.180;2022-09-27T00:39:38;3.52;;;1.50;;
16705;SDS011;8469;60.136;15.180;2022-09-27T00:42:08;3.45;;;1.60;;
16705;SDS011;8469;60.136;15.180;2022-09-27T00:49:46;2.52;;;1.62;;
16705;SDS011;8469;60.136;15.180;2022-09-27T00:52:20;2.50;;;1.60;;
16705;SDS011;8469;60.136;15.180;2022-09-27T00:54:50;3.87;;;1.67;;
16705;SDS011;8469;60.136;15.180;2022-09-27T00:57:18;5.05;;;1.60;;
16705;SDS011;8469;60.136;15.180;2022-09-27T00:59:48;1.95;;;1.50;;
16705;SDS011;8469;60.136;15.180;2022-09-27T01:02:15;2.05;;;1.70;;
16705;SDS011;8469;60.136;15.180;2022-09-27T01:04:43;1.67;;;1.57;;
16705;SDS011;8469;60.136;15.180;2022-09-27T01:07:12;3.37;;;1.72;;
16705;SDS011;8469;60.136;15.180;2022-09-27T01:09:40;1.70;;;1.60;;
16705;SDS011;8469;60.136;15.180;2022-09-27T01:12:22;3.70;;;1.87;;
16705;SDS011;8469;60.136;15.180;2022-09-27T01:25:00;1.67;;;1.52;;
16705;SDS011;8469;60.136;15.180;2022-09-27T01:35:22;2.30;;;2.00;;
16705;SDS011;8469;60.136;15.180;2022-09-27T01:40:29;3.83;;;1.77;;
16705;SDS011;8469;60.136;15.180;2022-09-27T01:42:59;3.17;;;1.80;;
16705;SDS011;8469;60.136;15.180;2022-09-27T01:45:30;2.83;;;1.82;;
16705;SDS011;8469;60.136;15.180;2022-09-27T01:47:59;3.33;;;1.90;;
16705;SDS011;8469;60.136;15.180;2022-09-27T01:50:31;3.37;;;1.90;;
16705;SDS011;8469;60.136;15.180;2022-09-27T01:53:02;4.37;;;2.10;;
16705;SDS011;8469;60.136;15.180;2022-09-27T01:55:31;2.37;;;2.10;;
16705;SDS011;8469;60.136;15.180;2022-09-27T01:58:08;4.00;;;2.10;;
16705;SDS011;8469;60.136;15.180;2022-09-27T02:00:30;2.20;;;1.97;;
16705;SDS011;8469;60.136;15.180;2022-09-27T02:03:00;2.87;;;2.00;;
16705;SDS011;8469;60.136;15.180;2022-09-27T02:05:31;2.73;;;2.03;;
16705;SDS011;8469;60.136;15.180;2022-09-27T02:08:04;4.03;;;2.40;;
16705;SDS011;8469;60.136;15.180;2022-09-27T02:10:29;4.62;;;2.10;;
16705;SDS011;8469;60.136;15.180;2022-09-27T02:12:59;3.50;;;2.20;;
16705;SDS011;8469;60.136;15.180;2022-09-27T02:15:26;4.40;;;2.15;;
16705;SDS011;8469;60.136;15.180;2022-09-27T02:17:57;4.70;;;2.62;;
16705;SDS011;8469;60.136;15.180;2022-09-27T02:20:26;2.87;;;2.15;;
16705;SDS011;8469;60.136;15.180;2022-09-27T02:25:27;3.45;;;2.22;;
16705;SDS011;8469;60.136;15.180;2022-09-27T02:30:32;3.20;;;2.30;;
16705;SDS011;8469;60.136;15.180;2022-09-27T02:32:59;2.27;;;2.10;;
16705;SDS011;8469;60.136;15.180;2022-09-27T02:35:28;4.70;;;2.30;;
16705;SDS011;8469;60.136;15.180;2022-09-27T02:37:55;5.10;;;2.30;;
16705;SDS011;8469;60.136;15.180;2022-09-27T02:40:24;2.40;;;2.20;;
16705;SDS011;8469;60.136;15.180;2022-09-27T02:42:52;7.95;;;2.67;;
16705;SDS011;8469;60.136;15.180;2022-09-27T02:45:19;4.50;;;2.00;;
16705;SDS011;8469;60.136;15.180;2022-09-27T02:47:56;3.87;;;2.10;;
16705;SDS011;8469;60.136;15.180;2022-09-27T02:53:02;3.47;;;2.08;;
16705;SDS011;8469;60.136;15.180;2022-09-27T02:56:12;4.23;;;2.10;;
16705;SDS011;8469;60.136;15.180;2022-09-27T03:00:40;5.03;;;2.00;;
16705;SDS011;8469;60.136;15.180;2022-09-27T03:04:05;4.72;;;2.33;;
16705;SDS011;8469;60.136;15.180;2022-09-27T03:05:42;1.82;;;1.72;;
16705;SDS011;8469;60.136;15.180;2022-09-27T03:08:10;5.62;;;2.00;;
16705;SDS011;8469;60.136;15.180;2022-09-27T03:10:37;4.42;;;2.40;;
16705;SDS011;8469;60.136;15.180;2022-09-27T03:13:05;5.37;;;2.10;;
16705;SDS011;8469;60.136;15.180;2022-09-27T03:15:32;3.58;;;2.20;;
16705;SDS011;8469;60.136;15.180;2022-09-27T03:18:00;4.80;;;2.37;;
16705;SDS011;8469;60.136;15.180;2022-09-27T03:20:27;5.50;;;2.20;;
16705;SDS011;8469;60.136;15.180;2022-09-27T03:22:54;5.67;;;2.37;;
16705;SDS011;8469;60.136;15.180;2022-09-27T03:25:22;2.87;;;1.87;;
16705;SDS011;8469;60.136;15.180;2022-09-27T03:27:49;3.35;;;2.20;;
16705;SDS011;8469;60.136;15.180;2022-09-27T03:30:16;3.02;;;2.00;;
16705;SDS011;8469;60.136;15.180;2022-09-27T03:32:44;3.27;;;1.93;;
16705;SDS011;8469;60.136;15.180;2022-09-27T03:35:12;4.30;;;2.35;;
16705;SDS011;8469;60.136;15.180;2022-09-27T03:37:39;3.35;;;1.75;;
16705;SDS011;8469;60.136;15.180;2022-09-27T03:40:07;4.60;;;1.92;;
16705;SDS011;8469;60.136;15.180;2022-09-27T03:42:34;4.20;;;1.90;;
16705;SDS011;8469;60.136;15.180;2022-09-27T03:45:01;7.37;;;2.10;;
16705;SDS011;8469;60.136;15.180;2022-09-27T03:47:28;4.95;;;2.02;;
16705;SDS011;8469;60.136;15.180;2022-09-27T03:49:56;4.92;;;2.20;;
16705;SDS011;8469;60.136;15.180;2022-09-27T03:52:23;3.60;;;1.90;;
16705;SDS011;8469;60.136;15.180;2022-09-27T03:54:50;4.90;;;1.90;;
16705;SDS011;8469;60.136;15.180;2022-09-27T03:57:17;6.53;;;1.92;;
16705;SDS011;8469;60.136;15.180;2022-09-27T03:59:45;3.83;;;1.90;;
16705;SDS011;8469;60.136;15.180;2022-09-27T04:02:12;5.70;;;1.80;;
16705;SDS011;8469;60.136;15.180;2022-09-27T04:04:40;5.33;;;1.90;;
16705;SDS011;8469;60.136;15.180;2022-09-27T04:07:08;3.58;;;1.80;;
16705;SDS011;8469;60.136;15.180;2022-09-27T04:09:35;3.17;;;1.70;;
16705;SDS011;8469;60.136;15.180;2022-09-27T04:12:03;2.67;;;1.80;;
16705;SDS011;8469;60.136;15.180;2022-09-27T04:14:30;6.15;;;2.22;;
16705;SDS011;8469;60.136;15.180;2022-09-27T04:16:58;5.00;;;1.87;;
16705;SDS011;8469;60.136;15.180;2022-09-27T04:19:26;5.33;;;1.70;;
16705;SDS011;8469;60.136;15.180;2022-09-27T04:21:53;2.33;;;1.80;;
16705;SDS011;8469;60.136;15.180;2022-09-27T04:24:20;5.73;;;1.90;;
16705;SDS011;8469;60.136;15.180;2022-09-27T04:26:47;7.08;;;2.17;;
16705;SDS011;8469;60.136;15.180;2022-09-27T04:29:15;6.53;;;1.90;;
16705;SDS011;8469;60.136;15.180;2022-09-27T04:31:42;3.10;;;1.73;;
16705;SDS011;8469;60.136;15.180;2022-09-27T04:34:09;4.28;;;1.87;;
16705;SDS011;8469;60.136;15.180;2022-09-27T04:36:37;3.58;;;1.70;;
16705;SDS011;8469;60.136;15.180;2022-09-27T04:39:05;5.53;;;1.67;;
16705;SDS011;8469;60.136;15.180;2022-09-27T04:41:32;8.63;;;1.70;;
16705;SDS011;8469;60.136;15.180;2022-09-27T04:44:01;3.33;;;1.75;;
16705;SDS011;8469;60.136;15.180;2022-09-27T04:46:29;3.60;;;2.10;;
16705;SDS011;8469;60.136;15.180;2022-09-27T04:48:59;2.12;;;1.50;;
16705;SDS011;8469;60.136;15.180;2022-09-27T04:51:27;6.60;;;1.72;;
16705;SDS011;8469;60.136;15.180;2022-09-27T04:53:55;4.37;;;1.85;;
16705;SDS011;8469;60.136;15.180;2022-09-27T04:56:23;5.62;;;1.92;;
16705;SDS011;8469;60.136;15.180;2022-09-27T04:58:50;2.85;;;1.55;;
16705;SDS011;8469;60.136;15.180;2022-09-27T05:01:17;3.55;;;1.80;;
16705;SDS011;8469;60.136;15.180;2022-09-27T05:03:44;4.60;;;1.50;;
16705;SDS011;8469;60.136;15.180;2022-09-27T05:06:12;4.05;;;1.70;;
16705;SDS011;8469;60.136;15.180;2022-09-27T05:08:39;4.22;;;1.60;;
16705;SDS011;8469;60.136;15.180;2022-09-27T05:11:07;3.40;;;1.52;;
16705;SDS011;8469;60.136;15.180;2022-09-27T05:13:34;3.07;;;1.40;;
16705;SDS011;8469;60.136;15.180;2022-09-27T05:16:02;4.12;;;1.50;;
16705;SDS011;8469;60.136;15.180;2022-09-27T05:18:30;3.03;;;1.30;;
16705;SDS011;8469;60.136;15.180;2022-09-27T05:20:57;3.05;;;1.50;;
16705;SDS011;8469;60.136;15.180;2022-09-27T05:23:24;4.28;;;1.45;;
16705;SDS011;8469;60.136;15.180;2022-09-27T05:25:52;3.45;;;1.60;;
16705;SDS011;8469;60.136;15.180;2022-09-27T05:28:21;7.33;;;1.60;;
16705;SDS011;8469;60.136;15.180;2022-09-27T05:30:49;3.22;;;1.40;;
16705;SDS011;8469;60.136;15.180;2022-09-27T05:33:21;1.92;;;1.30;;
16705;SDS011;8469;60.136;15.180;2022-09-27T05:35:52;3.08;;;1.60;;
16705;SDS011;8469;60.136;15.180;2022-09-27T05:38:19;8.63;;;1.77;;
16705;SDS011;8469;60.136;15.180;2022-09-27T05:40:47;6.15;;;1.90;;
16705;SDS011;8469;60.136;15.180;2022-09-27T05:43:16;2.92;;;1.50;;
16705;SDS011;8469;60.136;15.180;2022-09-27T05:45:44;4.47;;;1.65;;
16705;SDS011;8469;60.136;15.180;2022-09-27T05:48:11;6.90;;;1.90;;
16705;SDS011;8469;60.136;15.180;2022-09-27T05:50:39;3.17;;;1.60;;
16705;SDS011;8469;60.136;15.180;2022-09-27T05:53:07;4.87;;;1.57;;
16705;SDS011;8469;60.136;15.180;2022-09-27T05:55:35;4.28;;;1.50;;
16705;SDS011;8469;60.136;15.180;2022-09-27T05:58:05;6.50;;;2.00;;
16705;SDS011;8469;60.136;15.180;2022-09-27T06:00:31;3.17;;;1.67;;
16705;SDS011;8469;60.136;15.180;2022-09-27T06:03:00;2.55;;;1.55;;
16705;SDS011;8469;60.136;15.180;2022-09-27T06:05:29;5.92;;;1.67;;
16705;SDS011;8469;60.136;15.180;2022-09-27T06:07:57;3.45;;;1.50;;
16705;SDS011;8469;60.136;15.180;2022-09-27T06:10:25;3.55;;;1.67;;
16705;SDS011;8469;60.136;15.180;2022-09-27T06:13:03;2.83;;;1.45;;
16705;SDS011;8469;60.136;15.180;2022-09-27T06:15:22;1.57;;;1.47;;
16705;SDS011;8469;60.136;15.180;2022-09-27T06:17:49;3.87;;;1.70;;
16705;SDS011;8469;60.136;15.180;2022-09-27T06:20:16;3.80;;;1.50;;
16705;SDS011;8469;60.136;15.180;2022-09-27T06:22:43;5.53;;;1.60;;
16705;SDS011;8469;60.136;15.180;2022-09-27T06:25:11;1.70;;;1.60;;
16705;SDS011;8469;60.136;15.180;2022-09-27T06:27:39;4.67;;;1.65;;
16705;SDS011;8469;60.136;15.180;2022-09-27T06:30:07;3.70;;;1.82;;
16705;SDS011;8469;60.136;15.180;2022-09-27T06:32:34;2.73;;;1.60;;
16705;SDS011;8469;60.136;15.180;2022-09-27T06:35:02;4.60;;;1.50;;
16705;SDS011;8469;60.136;15.180;2022-09-27T06:37:30;4.75;;;1.57;;
16705;SDS011;8469;60.136;15.180;2022-09-27T06:39:57;4.58;;;1.67;;
16705;SDS011;8469;60.136;15.180;2022-09-27T06:42:25;9.10;;;1.75;;
16705;SDS011;8469;60.136;15.180;2022-09-27T06:44:53;5.60;;;1.50;;
16705;SDS011;8469;60.136;15.180;2022-09-27T06:47:20;3.80;;;1.75;;
16705;SDS011;8469;60.136;15.180;2022-09-27T06:49:49;3.25;;;1.42;;
16705;SDS011;8469;60.136;15.180;2022-09-27T06:52:16;5.37;;;1.72;;
16705;SDS011;8469;60.136;15.180;2022-09-27T06:54:43;4.35;;;1.70;;
16705;SDS011;8469;60.136;15.180;2022-09-27T06:57:10;4.22;;;1.55;;
16705;SDS011;8469;60.136;15.180;2022-09-27T06:59:39;1.87;;;1.30;;
16705;SDS011;8469;60.136;15.180;2022-09-27T07:02:23;2.15;;;1.45;;
16705;SDS011;8469;60.136;15.180;2022-09-27T07:04:52;2.45;;;1.30;;
16705;SDS011;8469;60.136;15.180;2022-09-27T07:07:19;2.33;;;1.30;;
16705;SDS011;8469;60.136;15.180;2022-09-27T07:09:47;2.87;;;1.50;;
16705;SDS011;8469;60.136;15.180;2022-09-27T07:12:14;2.15;;;1.50;;
16705;SDS011;8469;60.136;15.180;2022-09-27T07:14:42;2.73;;;1.30;;
16705;SDS011;8469;60.136;15.180;2022-09-27T07:17:09;2.45;;;1.30;;
16705;SDS011;8469;60.136;15.180;2022-09-27T07:19:38;2.33;;;1.40;;
16705;SDS011;8469;60.136;15.180;2022-09-27T07:22:05;2.42;;;1.45;;
16705;SDS011;8469;60.136;15.180;2022-09-27T07:24:32;2.93;;;1.50;;
16705;SDS011;8469;60.136;15.180;2022-09-27T07:27:00;1.65;;;1.37;;
16705;SDS011;8469;60.136;15.180;2022-09-27T07:29:27;2.42;;;1.50;;
16705;SDS011;8469;60.136;15.180;2022-09-27T07:31:54;3.45;;;1.60;;
16705;SDS011;8469;60.136;15.180;2022-09-27T07:34:22;3.42;;;1.40;;
16705;SDS011;8469;60.136;15.180;2022-09-27T07:36:49;4.28;;;1.40;;
16705;SDS011;8469;60.136;15.180;2022-09-27T07:39:16;1.75;;;1.40;;
16705;SDS011;8469;60.136;15.180;2022-09-27T07:41:43;3.12;;;1.70;;
16705;SDS011;8469;60.136;15.180;2022-09-27T07:44:12;2.55;;;1.50;;
16705;SDS011;8469;60.136;15.180;2022-09-27T07:46:41;2.35;;;1.30;;
16705;SDS011;8469;60.136;15.180;2022-09-27T07:49:09;1.57;;;1.37;;
16705;SDS011;8469;60.136;15.180;2022-09-27T07:51:37;3.55;;;1.70;;
16705;SDS011;8469;60.136;15.180;2022-09-27T07:54:04;3.45;;;1.30;;
16705;SDS011;8469;60.136;15.180;2022-09-27T07:56:32;2.92;;;1.42;;
16705;SDS011;8469;60.136;15.180;2022-09-27T07:58:59;1.55;;;1.17;;
16705;SDS011;8469;60.136;15.180;2022-09-27T08:01:26;3.00;;;1.40;;
16705;SDS011;8469;60.136;15.180;2022-09-27T08:03:53;1.92;;;1.30;;
16705;SDS011;8469;60.136;15.180;2022-09-27T08:06:22;1.62;;;1.30;;
16705;SDS011;8469;60.136;15.180;2022-09-27T08:08:50;2.05;;;1.47;;
16705;SDS011;8469;60.136;15.180;2022-09-27T08:11:20;2.20;;;1.12;;
16705;SDS011;8469;60.136;15.180;2022-09-27T08:13:47;2.73;;;1.50;;
16705;SDS011;8469;60.136;15.180;2022-09-27T08:16:17;2.00;;;1.22;;
16705;SDS011;8469;60.136;15.180;2022-09-27T08:18:44;3.00;;;1.40;;
16705;SDS011;8469;60.136;15.180;2022-09-27T08:21:11;1.75;;;1.30;;
16705;SDS011;8469;60.136;15.180;2022-09-27T08:23:39;1.57;;;1.20;;
16705;SDS011;8469;60.136;15.180;2022-09-27T08:26:08;2.12;;;1.40;;
16705;SDS011;8469;60.136;15.180;2022-09-27T08:28:35;1.82;;;1.30;;
16705;SDS011;8469;60.136;15.180;2022-09-27T08:31:02;4.83;;;2.62;;
16705;SDS011;8469;60.136;15.180;2022-09-27T08:33:29;1.77;;;1.35;;
16705;SDS011;8469;60.136;15.180;2022-09-27T08:35:57;1.90;;;1.30;;
16705;SDS011;8469;60.136;15.180;2022-09-27T08:38:24;2.65;;;1.30;;
16705;SDS011;8469;60.136;15.180;2022-09-27T08:40:52;1.92;;;1.45;;
16705;SDS011;8469;60.136;15.180;2022-09-27T08:46:08;1.62;;;1.40;;
16705;SDS011;8469;60.136;15.180;2022-09-27T08:48:34;2.03;;;1.50;;
16705;SDS011;8469;60.136;15.180;2022-09-27T08:51:04;1.87;;;1.55;;
16705;SDS011;8469;60.136;15.180;2022-09-27T08:53:40;1.60;;;1.50;;
16705;SDS011;8469;60.136;15.180;2022-09-27T08:56:07;3.52;;;1.30;;
16705;SDS011;8469;60.136;15.180;2022-09-27T08:58:35;2.00;;;1.30;;
16705;SDS011;8469;60.136;15.180;2022-09-27T09:01:10;3.55;;;1.50;;
16705;SDS011;8469;60.136;15.180;2022-09-27T09:03:48;2.56;;;1.45;;
16705;SDS011;8469;60.136;15.180;2022-09-27T09:06:17;1.90;;;1.30;;
16705;SDS011;8469;60.136;15.180;2022-09-27T09:08:49;3.90;;;1.40;;
16705;SDS011;8469;60.136;15.180;2022-09-27T09:17:01;1.65;;;1.55;;
16705;SDS011;8469;60.136;15.180;2022-09-27T09:22:16;1.70;;;1.57;;
16705;SDS011;8469;60.136;15.180;2022-09-27T09:24:42;3.02;;;1.30;;
16705;SDS011;8469;60.136;15.180;2022-09-27T09:27:16;2.00;;;1.42;;
16705;SDS011;8469;60.136;15.180;2022-09-27T09:32:28;4.30;;;1.60;;
16705;SDS011;8469;60.136;15.180;2022-09-27T09:34:56;3.30;;;1.30;;
16705;SDS011;8469;60.136;15.180;2022-09-27T09:37:46;2.62;;;1.50;;
16705;SDS011;8469;60.136;15.180;2022-09-27T09:40:25;3.85;;;1.65;;
16705;SDS011;8469;60.136;15.180;2022-09-27T09:42:56;3.50;;;1.37;;
16705;SDS011;8469;60.136;15.180;2022-09-27T09:45:29;3.10;;;1.70;;
16705;SDS011;8469;60.136;15.180;2022-09-27T09:50:42;4.12;;;1.40;;
16705;SDS011;8469;60.136;15.180;2022-09-27T09:53:11;3.45;;;1.30;;
16705;SDS011;8469;60.136;15.180;2022-09-27T09:55:38;3.37;;;1.50;;
16705;SDS011;8469;60.136;15.180;2022-09-27T10:00:53;2.00;;;1.80;;
16705;SDS011;8469;60.136;15.180;2022-09-27T10:03:22;2.40;;;1.22;;
16705;SDS011;8469;60.136;15.180;2022-09-27T10:05:49;1.20;;;1.10;;
16705;SDS011;8469;60.136;15.180;2022-09-27T10:08:20;6.97;;;1.80;;
16705;SDS011;8469;60.136;15.180;2022-09-27T10:10:48;3.47;;;1.30;;
16705;SDS011;8469;60.136;15.180;2022-09-27T10:13:16;3.45;;;1.20;;
16705;SDS011;8469;60.136;15.180;2022-09-27T10:16:08;2.40;;;1.30;;
16705;SDS011;8469;60.136;15.180;2022-09-27T10:18:31;3.93;;;1.43;;
16705;SDS011;8469;60.136;15.180;2022-09-27T10:20:59;1.62;;;1.17;;
16705;SDS011;8469;60.136;15.180;2022-09-27T10:23:28;1.90;;;1.20;;
16705;SDS011;8469;60.136;15.180;2022-09-27T10:26:00;2.20;;;1.17;;
16705;SDS011;8469;60.136;15.180;2022-09-27T10:28:35;2.20;;;1.10;;
16705;SDS011;8469;60.136;15.180;2022-09-27T10:31:06;2.33;;;1.20;;
16705;SDS011;8469;60.136;15.180;2022-09-27T10:33:39;2.50;;;1.10;;
16705;SDS011;8469;60.136;15.180;2022-09-27T10:36:21;1.40;;;1.10;;
16705;SDS011;8469;60.136;15.180;2022-09-27T10:38:36;1.25;;;1.10;;
16705;SDS011;8469;60.136;15.180;2022-09-27T10:41:16;3.57;;;1.50;;
16705;SDS011;8469;60.136;15.180;2022-09-27T10:43:44;2.62;;;1.20;;
16705;SDS011;8469;60.136;15.180;2022-09-27T10:46:14;1.92;;;1.10;;
16705;SDS011;8469;60.136;15.180;2022-09-27T10:48:40;2.08;;;1.30;;
16705;SDS011;8469;60.136;15.180;2022-09-27T10:51:21;1.90;;;0.90;;
16705;SDS011;8469;60.136;15.180;2022-09-27T10:53:49;4.42;;;0.90;;
16705;SDS011;8469;60.136;15.180;2022-09-27T10:56:25;3.98;;;1.40;;
16705;SDS011;8469;60.136;15.180;2022-09-27T10:58:49;4.45;;;1.00;;
16705;SDS011;8469;60.136;15.180;2022-09-27T11:01:16;2.12;;;1.10;;
16705;SDS011;8469;60.136;15.180;2022-09-27T11:03:48;2.30;;;1.00;;
16705;SDS011;8469;60.136;15.180;2022-09-27T11:08:50;3.35;;;1.00;;
16705;SDS011;8469;60.136;15.180;2022-09-27T11:14:04;4.50;;;1.00;;
16705;SDS011;8469;60.136;15.180;2022-09-27T11:16:40;1.27;;;0.95;;
16705;SDS011;8469;60.136;15.180;2022-09-27T11:19:23;4.03;;;0.80;;
16705;SDS011;8469;60.136;15.180;2022-09-27T11:22:11;2.05;;;1.12;;
16705;SDS011;8469;60.136;15.180;2022-09-27T11:27:26;3.02;;;0.90;;
16705;SDS011;8469;60.136;15.180;2022-09-27T11:30:14;1.00;;;0.90;;
16705;SDS011;8469;60.136;15.180;2022-09-27T11:51:07;2.27;;;0.90;;
16705;SDS011;8469;60.136;15.180;2022-09-27T11:53:45;1.13;;;0.83;;
16705;SDS011;8469;60.136;15.180;2022-09-27T11:56:23;3.33;;;0.93;;
16705;SDS011;8469;60.136;15.180;2022-09-27T11:58:55;1.60;;;0.70;;
16705;SDS011;8469;60.136;15.180;2022-09-27T12:04:25;2.50;;;0.90;;
16705;SDS011;8469;60.136;15.180;2022-09-27T12:06:53;3.20;;;0.90;;
16705;SDS011;8469;60.136;15.180;2022-09-27T12:09:24;2.40;;;0.72;;
16705;SDS011;8469;60.136;15.180;2022-09-27T12:11:49;3.52;;;0.80;;
16705;SDS011;8469;60.136;15.180;2022-09-27T12:14:32;1.17;;;0.93;;
16705;SDS011;8469;60.136;15.180;2022-09-27T12:16:55;1.90;;;0.90;;
16705;SDS011;8469;60.136;15.180;2022-09-27T12:19:27;2.55;;;0.90;;
16705;SDS011;8469;60.136;15.180;2022-09-27T12:21:55;0.75;;;0.75;;
16705;SDS011;8469;60.136;15.180;2022-09-27T12:24:24;2.37;;;1.20;;
16705;SDS011;8469;60.136;15.180;2022-09-27T12:26:55;3.80;;;0.90;;
16705;SDS011;8469;60.136;15.180;2022-09-27T12:29:26;4.15;;;0.90;;
16705;SDS011;8469;60.136;15.180;2022-09-27T12:37:09;1.10;;;0.90;;
16705;SDS011;8469;60.136;15.180;2022-09-27T12:39:39;3.55;;;1.10;;
16705;SDS011;8469;60.136;15.180;2022-09-27T12:42:13;1.85;;;1.00;;
16705;SDS011;8469;60.136;15.180;2022-09-27T12:44:39;2.87;;;1.00;;
16705;SDS011;8469;60.136;15.180;2022-09-27T12:50:11;1.52;;;0.75;;
16705;SDS011;8469;60.136;15.180;2022-09-27T12:52:40;0.70;;;0.70;;
16705;SDS011;8469;60.136;15.180;2022-09-27T12:55:13;6.30;;;1.05;;
16705;SDS011;8469;60.136;15.180;2022-09-27T12:58:39;1.70;;;0.98;;
16705;SDS011;8469;60.136;15.180;2022-09-27T13:00:21;1.40;;;0.93;;
16705;SDS011;8469;60.136;15.180;2022-09-27T13:03:11;4.80;;;0.80;;
16705;SDS011;8469;60.136;15.180;2022-09-27T13:10:59;1.90;;;1.00;;
16705;SDS011;8469;60.136;15.180;2022-09-27T13:13:26;1.45;;;0.90;;
16705;SDS011;8469;60.136;15.180;2022-09-27T13:15:58;3.77;;;0.80;;
16705;SDS011;8469;60.136;15.180;2022-09-27T13:21:08;1.57;;;0.80;;
16705;SDS011;8469;60.136;15.180;2022-09-27T13:26:20;1.50;;;0.88;;
16705;SDS011;8469;60.136;15.180;2022-09-27T13:34:11;2.05;;;0.88;;
16705;SDS011;8469;60.136;15.180;2022-09-27T13:36:35;2.85;;;0.70;;
16705;SDS011;8469;60.136;15.180;2022-09-27T13:44:22;2.08;;;1.37;;
16705;SDS011;8469;60.136;15.180;2022-09-27T13:46:59;2.00;;;0.60;;
16705;SDS011;8469;60.136;15.180;2022-09-27T13:49:36;2.02;;;0.90;;
16705;SDS011;8469;60.136;15.180;2022-09-27T13:52:18;1.17;;;0.80;;
16705;SDS011;8469;60.136;15.180;2022-09-27T13:54:53;3.67;;;0.90;;
16705;SDS011;8469;60.136;15.180;2022-09-27T14:00:16;4.10;;;0.93;;
16705;SDS011;8469;60.136;15.180;2022-09-27T14:02:52;3.47;;;0.90;;
16705;SDS011;8469;60.136;15.180;2022-09-27T14:05:19;6.22;;;1.02;;
16705;SDS011;8469;60.136;15.180;2022-09-27T14:07:46;2.70;;;0.78;;
16705;SDS011;8469;60.136;15.180;2022-09-27T14:10:16;2.95;;;1.00;;
16705;SDS011;8469;60.136;15.180;2022-09-27T14:12:46;2.22;;;0.95;;
16705;SDS011;8469;60.136;15.180;2022-09-27T14:15:17;4.00;;;0.90;;
16705;SDS011;8469;60.136;15.180;2022-09-27T14:17:45;2.52;;;0.90;;
16705;SDS011;8469;60.136;15.180;2022-09-27T14:22:54;3.50;;;1.20;;
16705;SDS011;8469;60.136;15.180;2022-09-27T14:25:21;1.98;;;1.00;;
16705;SDS011;8469;60.136;15.180;2022-09-27T14:27:48;1.57;;;1.00;;
16705;SDS011;8469;60.136;15.180;2022-09-27T14:30:20;1.95;;;1.05;;
16705;SDS011;8469;60.136;15.180;2022-09-27T14:35:34;1.60;;;1.00;;
16705;SDS011;8469;60.136;15.180;2022-09-27T14:38:20;4.03;;;1.00;;
16705;SDS011;8469;60.136;15.180;2022-09-27T14:40:55;4.47;;;1.30;;
16705;SDS011;8469;60.136;15.180;2022-09-27T14:43:22;2.80;;;1.10;;
16705;SDS011;8469;60.136;15.180;2022-09-27T14:45:56;2.72;;;1.10;;
16705;SDS011;8469;60.136;15.180;2022-09-27T14:48:28;3.45;;;1.17;;
16705;SDS011;8469;60.136;15.180;2022-09-27T14:51:01;3.98;;;1.30;;
16705;SDS011;8469;60.136;15.180;2022-09-27T14:53:33;2.30;;;1.20;;
16705;SDS011;8469;60.136;15.180;2022-09-27T14:56:01;3.90;;;1.20;;
16705;SDS011;8469;60.136;15.180;2022-09-27T14:58:28;4.20;;;1.45;;
16705;SDS011;8469;60.136;15.180;2022-09-27T15:00:56;4.03;;;1.30;;
16705;SDS011;8469;60.136;15.180;2022-09-27T15:03:26;7.67;;;1.72;;
16705;SDS011;8469;60.136;15.180;2022-09-27T15:05:55;7.50;;;1.43;;
16705;SDS011;8469;60.136;15.180;2022-09-27T15:08:26;2.02;;;1.60;;
16705;SDS011;8469;60.136;15.180;2022-09-27T15:10:55;3.92;;;1.50;;
16705;SDS011;8469;60.136;15.180;2022-09-27T15:13:23;4.12;;;1.40;;
16705;SDS011;8469;60.136;15.180;2022-09-27T15:15:52;2.27;;;1.40;;
16705;SDS011;8469;60.136;15.180;2022-09-27T15:18:40;2.47;;;1.55;;
16705;SDS011;8469;60.136;15.180;2022-09-27T15:21:08;2.33;;;1.35;;
16705;SDS011;8469;60.136;15.180;2022-09-27T15:23:36;3.83;;;1.30;;
16705;SDS011;8469;60.136;15.180;2022-09-27T15:28:35;4.20;;;1.40;;
16705;SDS011;8469;60.136;15.180;2022-09-27T15:31:04;1.90;;;1.30;;
16705;SDS011;8469;60.136;15.180;2022-09-27T15:33:33;3.70;;;1.30;;
16705;SDS011;8469;60.136;15.180;2022-09-27T15:36:02;2.93;;;1.40;;
16705;SDS011;8469;60.136;15.180;2022-09-27T15:38:30;3.20;;;1.60;;
16705;SDS011;8469;60.136;15.180;2022-09-27T15:41:02;2.95;;;1.77;;
16705;SDS011;8469;60.136;15.180;2022-09-27T15:45:59;2.05;;;1.75;;
16705;SDS011;8469;60.136;15.180;2022-09-27T15:48:29;3.55;;;2.08;;
16705;SDS011;8469;60.136;15.180;2022-09-27T15:50:57;11.75;;;4.03;;
16705;SDS011;8469;60.136;15.180;2022-09-27T15:56:00;4.10;;;2.12;;
16705;SDS011;8469;60.136;15.180;2022-09-27T15:58:28;3.17;;;2.02;;
16705;SDS011;8469;60.136;15.180;2022-09-27T16:00:57;4.05;;;2.22;;
16705;SDS011;8469;60.136;15.180;2022-09-27T16:03:27;6.00;;;2.45;;
16705;SDS011;8469;60.136;15.180;2022-09-27T16:05:54;6.00;;;2.42;;
16705;SDS011;8469;60.136;15.180;2022-09-27T16:08:23;3.42;;;2.60;;
16705;SDS011;8469;60.136;15.180;2022-09-27T16:10:55;3.50;;;2.80;;
16705;SDS011;8469;60.136;15.180;2022-09-27T16:13:20;5.70;;;3.30;;
16705;SDS011;8469;60.136;15.180;2022-09-27T16:15:48;4.08;;;3.60;;
16705;SDS011;8469;60.136;15.180;2022-09-27T16:18:15;7.13;;;4.57;;
16705;SDS011;8469;60.136;15.180;2022-09-27T16:20:43;6.35;;;4.20;;
16705;SDS011;8469;60.136;15.180;2022-09-27T16:23:10;7.80;;;4.67;;
16705;SDS011;8469;60.136;15.180;2022-09-27T16:25:37;8.70;;;5.08;;
16705;SDS011;8469;60.136;15.180;2022-09-27T16:28:05;7.12;;;5.22;;
16705;SDS011;8469;60.136;15.180;2022-09-27T16:30:34;6.95;;;5.17;;
16705;SDS011;8469;60.136;15.180;2022-09-27T16:33:02;6.17;;;5.40;;
16705;SDS011;8469;60.136;15.180;2022-09-27T16:35:29;7.53;;;5.58;;
16705;SDS011;8469;60.136;15.180;2022-09-27T16:37:57;6.62;;;5.75;;
16705;SDS011;8469;60.136;15.180;2022-09-27T16:40:24;7.43;;;6.00;;
16705;SDS011;8469;60.136;15.180;2022-09-27T16:42:52;7.73;;;5.73;;
16705;SDS011;8469;60.136;15.180;2022-09-27T16:45:23;11.33;;;6.30;;
16705;SDS011;8469;60.136;15.180;2022-09-27T16:47:52;14.38;;;7.12;;
16705;SDS011;8469;60.136;15.180;2022-09-27T16:50:20;9.53;;;6.83;;
16705;SDS011;8469;60.136;15.180;2022-09-27T16:53:05;11.93;;;7.80;;
16705;SDS011;8469;60.136;15.180;2022-09-27T16:55:34;11.75;;;7.97;;
16705;SDS011;8469;60.136;15.180;2022-09-27T16:58:07;7.58;;;6.60;;
16705;SDS011;8469;60.136;15.180;2022-09-27T17:00:33;8.43;;;7.45;;
16705;SDS011;8469;60.136;15.180;2022-09-27T17:03:00;14.45;;;8.60;;
16705;SDS011;8469;60.136;15.180;2022-09-27T17:05:28;14.80;;;8.30;;
16705;SDS011;8469;60.136;15.180;2022-09-27T17:07:56;10.78;;;8.45;;
16705;SDS011;8469;60.136;15.180;2022-09-27T17:10:24;11.63;;;8.38;;